Time;durP1;ratioP1;P1;durP2;ratioP2;P2;SDS_P1;SDS_P2;PMS_P1;PMS_P2;Temp;Humidity;BMP_temperature;BMP_pressure;BME280_temperature;BME280_humidity;BME280_pressure;Samples;Min_cycle;Max_cycle;Signal;HPM_P1;HPM_P2
2023/03/20 06:01:31;;;;;;;;;27.00;20.50;;;;;-147.14;100.00;58812.66;5484946;22;46743;-74
2023/03/20 06:03:57;;;;;;;;;15.67;15.00;;;;;-147.14;100.00;58812.66;5012264;28;45334;-73
2023/03/20 06:06:22;;;;;;;;;21.00;21.00;;;;;-147.14;100.00;58812.66;5020656;28;45962;-75
2023/03/20 06:08:47;;;;;;;;;16.67;15.33;;;;;-147.14;100.00;58812.66;5032668;28;66547;-73
2023/03/20 06:11:12;;;;;;;;;17.33;17.33;;;;;-147.14;100.00;58812.66;5035039;28;69214;-73
2023/03/20 06:13:38;;;;;;;;;21.00;15.00;;;;;-147.14;100.00;58812.66;5022201;28;45317;-73
2023/03/20 06:16:03;;;;;;;;;16.33;15.00;;;;;-147.14;100.00;58812.66;5022452;28;61356;-73
2023/03/20 06:18:29;;;;;;;;;18.33;16.67;;;;;-147.14;100.00;58812.66;5006850;28;45424;-74
2023/03/20 06:20:56;;;;;;;;;22.33;16.33;;;;;-147.14;100.00;58812.66;5039762;28;45258;-74
2023/03/20 06:23:22;;;;;;;;;14.67;12.67;;;;;-147.14;100.00;58812.66;5022458;28;45369;-73
2023/03/20 06:25:47;;;;;;;;;12.67;10.00;;;;;-147.14;100.00;58812.66;5023775;28;45287;-74
2023/03/20 06:28:13;;;;;;;;;11.33;9.00;;;;;-147.14;100.00;58812.66;5039180;28;45431;-73
2023/03/20 06:30:38;;;;;;;;;10.00;7.00;;;;;-147.14;100.00;58812.66;5030499;28;75158;-74
2023/03/20 06:33:06;;;;;;;;;13.33;10.67;;;;;-147.14;100.00;58812.66;5011182;28;57109;-73
2023/03/20 06:35:32;;;;;;;;;5.33;5.00;;;;;-147.14;100.00;58812.66;5013686;28;45378;-73
2023/03/20 06:37:57;;;;;;;;;6.00;4.00;;;;;-147.14;100.00;58812.66;5021500;28;45575;-74
2023/03/20 06:40:23;;;;;;;;;8.67;8.00;;;;;-147.14;100.00;58812.66;5039887;28;46525;-75
2023/03/20 06:42:49;;;;;;;;;7.00;6.00;;;;;-147.14;100.00;58812.66;5019445;28;46167;-74
2023/03/20 06:45:14;;;;;;;;;5.33;5.00;;;;;-147.14;100.00;58812.66;5018112;28;45763;-73
2023/03/20 06:47:40;;;;;;;;;3.67;3.67;;;;;-147.14;100.00;58812.66;5009509;28;45378;-73
2023/03/20 06:50:09;;;;;;;;;6.00;4.00;;;;;-147.14;100.00;58812.66;5017684;28;45408;-74
2023/03/20 06:52:34;;;;;;;;;4.00;4.00;;;;;-147.14;100.00;58812.66;5025559;28;45470;-74
2023/03/20 06:55:00;;;;;;;;;5.00;4.00;;;;;-147.14;100.00;58812.66;5027654;28;45479;-74
2023/03/20 06:57:25;;;;;;;;;4.67;4.00;;;;;-147.14;100.00;58812.66;5029590;28;45443;-73
2023/03/20 06:59:51;;;;;;;;;5.00;5.00;;;;;-147.14;100.00;58812.66;5022156;28;46462;-73
2023/03/20 07:02:16;;;;;;;;;4.67;3.00;;;;;-147.14;100.00;58812.66;5037875;28;45384;-74
2023/03/20 07:04:42;;;;;;;;;6.00;4.00;;;;;-147.14;100.00;58812.66;5015887;28;45743;-73
2023/03/20 07:07:07;;;;;;;;;4.00;2.00;;;;;-147.14;100.00;58812.66;5035380;28;45734;-74
2023/03/20 07:09:32;;;;;;;;;6.33;3.33;;;;;-147.14;100.00;58812.66;5001249;28;55052;-76
2023/03/20 07:11:58;;;;;;;;;6.00;3.00;;;;;-147.14;100.00;58812.66;5041660;28;71457;-75
2023/03/20 07:14:24;;;;;;;;;4.33;4.33;;;;;-147.14;100.00;58812.66;5026049;28;45393;-75
2023/03/20 07:16:49;;;;;;;;;4.33;4.33;;;;;-147.14;100.00;58812.66;5007455;28;45281;-75
2023/03/20 07:19:15;;;;;;;;;4.00;4.00;;;;;-147.14;100.00;58812.66;5016074;28;47406;-75
2023/03/20 07:21:41;;;;;;;;;5.00;5.00;;;;;-147.14;100.00;58812.66;5009568;28;45539;-76
2023/03/20 07:24:07;;;;;;;;;4.00;4.00;;;;;-147.14;100.00;58812.66;5007028;28;45715;-75
2023/03/20 07:26:32;;;;;;;;;5.33;3.67;;;;;-147.14;100.00;58812.66;5013864;28;45475;-75
2023/03/20 07:28:57;;;;;;;;;3.67;3.67;;;;;-147.14;100.00;58812.66;5016073;28;64397;-75
2023/03/20 07:31:25;;;;;;;;;4.00;4.00;;;;;-147.14;100.00;58812.66;5013636;28;69713;-62
2023/03/20 07:33:51;;;;;;;;;6.33;5.00;;;;;-147.14;100.00;58812.66;4992798;28;45505;-63
2023/03/20 07:36:16;;;;;;;;;2.00;2.00;;;;;-147.14;100.00;58812.66;5016320;28;45343;-60
2023/03/20 07:38:42;;;;;;;;;3.33;3.00;;;;;-147.14;100.00;58812.66;5028546;28;45683;-61
2023/03/20 07:41:07;;;;;;;;;4.00;3.00;;;;;-147.14;100.00;58812.66;5017736;28;45487;-63
2023/03/20 07:43:33;;;;;;;;;6.67;4.00;;;;;-147.14;100.00;58812.66;5030962;28;60259;-63
2023/03/20 07:46:07;;;;;;;;;5.33;3.00;;;;;-147.14;100.00;58812.66;5019167;28;67446;-62
2023/03/20 07:48:33;;;;;;;;;6.00;4.00;;;;;-147.14;100.00;58812.66;5002508;28;48045;-63
2023/03/20 07:50:58;;;;;;;;;5.67;3.33;;;;;-147.14;100.00;58812.66;5036779;28;45566;-63
2023/03/20 07:53:23;;;;;;;;;4.00;4.00;;;;;-147.14;100.00;58812.66;5016344;28;69975;-62
2023/03/20 07:55:49;;;;;;;;;4.33;4.33;;;;;-147.14;100.00;58812.66;5036703;28;45467;-61
2023/03/20 07:58:14;;;;;;;;;5.00;4.33;;;;;-147.14;100.00;58812.66;5032914;28;45552;-61
2023/03/20 08:00:40;;;;;;;;;5.67;4.67;;;;;-147.14;100.00;58812.66;5029805;28;70002;-62
2023/03/20 08:03:05;;;;;;;;;6.67;6.00;;;;;-147.14;100.00;58812.66;5035451;28;45966;-59
2023/03/20 08:05:30;;;;;;;;;5.00;4.00;;;;;-147.14;100.00;58812.66;5026575;28;58716;-59
2023/03/20 08:07:56;;;;;;;;;4.33;4.33;;;;;-147.14;100.00;58812.66;4998856;28;46747;-59
2023/03/20 08:10:21;;;;;;;;;4.67;4.00;;;;;-147.14;100.00;58812.66;5017533;28;59802;-54
2023/03/20 08:12:46;;;;;;;;;6.33;3.33;;;;;-147.14;100.00;58812.66;5023012;28;61505;-54
2023/03/20 08:15:12;;;;;;;;;8.67;5.67;;;;;-147.14;100.00;58812.66;5021388;28;45372;-54
2023/03/20 08:17:41;;;;;;;;;5.00;5.00;;;;;-147.14;100.00;58812.66;5038480;28;45913;-55
2023/03/20 08:20:07;;;;;;;;;6.00;4.33;;;;;-147.14;100.00;58812.66;5036313;28;45364;-55
2023/03/20 08:22:32;;;;;;;;;5.33;5.33;;;;;-147.14;100.00;58812.66;5029616;28;45365;-53
2023/03/20 08:24:58;;;;;;;;;6.67;4.33;;;;;-147.14;100.00;58812.66;5034737;28;45914;-54
2023/03/20 08:27:23;;;;;;;;;4.00;4.00;;;;;-147.14;100.00;58812.66;5031208;28;69260;-53
2023/03/20 08:29:49;;;;;;;;;16.33;13.33;;;;;-147.14;100.00;58812.66;5013821;28;45457;-54
2023/03/20 08:32:14;;;;;;;;;4.00;4.00;;;;;-147.14;100.00;58812.66;5032357;28;45286;-54
2023/03/20 08:34:39;;;;;;;;;4.67;4.33;;;;;-147.14;100.00;58812.66;5030917;28;64791;-53
2023/03/20 08:37:06;;;;;;;;;7.33;5.00;;;;;-147.14;100.00;58812.66;5017135;28;66822;-53
2023/03/20 08:39:32;;;;;;;;;7.67;3.67;;;;;-147.14;100.00;58812.66;5034373;28;45464;-54
2023/03/20 08:41:57;;;;;;;;;5.00;4.00;;;;;-147.14;100.00;58812.66;5037949;28;45430;-54
2023/03/20 08:44:22;;;;;;;;;5.67;5.67;;;;;-147.14;100.00;58812.66;5019989;28;64489;-53
2023/03/20 08:46:48;;;;;;;;;6.67;5.33;;;;;-147.14;100.00;58812.66;5033730;28;45590;-54
2023/03/20 08:49:14;;;;;;;;;9.00;5.00;;;;;-147.14;100.00;58812.66;5022645;28;57462;-53
2023/03/20 08:51:41;;;;;;;;;7.00;5.00;;;;;-147.14;100.00;58812.66;5026991;28;45335;-54
2023/03/20 08:54:07;;;;;;;;;6.67;4.00;;;;;-147.14;100.00;58812.66;5020930;28;46230;-52
2023/03/20 08:56:32;;;;;;;;;5.00;5.00;;;;;-147.14;100.00;58812.66;5031748;28;49954;-52
2023/03/20 08:58:57;;;;;;;;;5.67;4.00;;;;;-147.14;100.00;58812.66;5036110;28;60491;-54
2023/03/20 09:01:23;;;;;;;;;6.00;5.00;;;;;-147.14;100.00;58812.66;5037665;28;59618;-53
2023/03/20 09:03:48;;;;;;;;;6.33;5.33;;;;;-147.14;100.00;58812.66;5019481;28;48039;-53
2023/03/20 09:06:13;;;;;;;;;5.00;5.00;;;;;-147.14;100.00;58812.66;5040363;28;46032;-51
2023/03/20 09:08:39;;;;;;;;;5.00;4.67;;;;;-147.14;100.00;58812.66;5038219;28;67206;-54
2023/03/20 09:11:05;;;;;;;;;5.00;5.00;;;;;-147.14;100.00;58812.66;5037861;28;45825;-53
2023/03/20 09:13:31;;;;;;;;;6.00;6.00;;;;;-147.14;100.00;58812.66;5014831;28;45393;-53
2023/03/20 09:15:57;;;;;;;;;5.33;5.33;;;;;-147.14;100.00;58812.66;5042384;28;59520;-54
2023/03/20 09:18:23;;;;;;;;;7.67;6.00;;;;;-147.14;100.00;58812.66;5026629;28;45343;-54
2023/03/20 09:20:48;;;;;;;;;3.33;3.33;;;;;-147.14;100.00;58812.66;5027442;28;47369;-54
2023/03/20 09:23:14;;;;;;;;;5.67;3.00;;;;;-147.14;100.00;58812.66;5030959;28;45504;-54
2023/03/20 09:25:40;;;;;;;;;3.00;3.00;;;;;-147.14;100.00;58812.66;5025045;28;71802;-53
2023/03/20 09:28:05;;;;;;;;;4.33;4.33;;;;;-147.14;100.00;58812.66;5006896;28;45477;-54
2023/03/20 09:30:30;;;;;;;;;5.33;4.33;;;;;-147.14;100.00;58812.66;5020171;28;47705;-53
2023/03/20 09:32:56;;;;;;;;;4.67;3.67;;;;;-147.14;100.00;58812.66;5036000;28;64751;-55
2023/03/20 09:35:21;;;;;;;;;5.33;4.00;;;;;-147.14;100.00;58812.66;5037849;28;53065;-54
2023/03/20 09:37:46;;;;;;;;;4.67;3.33;;;;;-147.14;100.00;58812.66;5034573;28;70554;-54
2023/03/20 09:40:45;;;;;;;;;6.00;4.00;;;;;-147.14;100.00;58812.66;5037121;28;45463;-55
2023/03/20 09:43:47;;;;;;;;;2.00;2.00;;;;;-147.14;100.00;58812.66;5009251;28;45505;-55
2023/03/20 09:46:34;;;;;;;;;5.00;3.67;;;;;-147.14;100.00;58812.66;5015463;28;45482;-55
2023/03/20 09:49:14;;;;;;;;;3.00;3.00;;;;;-147.14;100.00;58812.66;5031175;28;45380;-55
2023/03/20 09:51:54;;;;;;;;;4.00;2.67;;;;;-147.14;100.00;58812.66;5020960;28;45231;-55
2023/03/20 09:54:28;;;;;;;;;6.33;5.00;;;;;-147.14;100.00;58812.66;5035598;28;45277;-55
2023/03/20 09:56:55;;;;;;;;;4.33;3.67;;;;;-147.14;100.00;58812.66;5018684;28;45442;-55
2023/03/20 09:59:23;;;;;;;;;3.00;3.00;;;;;-147.14;100.00;58812.66;5036417;28;45847;-55
2023/03/20 10:01:51;;;;;;;;;3.67;3.67;;;;;-147.14;100.00;58812.66;5015797;28;45492;-55
2023/03/20 10:04:17;;;;;;;;;5.33;3.00;;;;;-147.14;100.00;58812.66;5025973;28;45266;-56
2023/03/20 10:06:42;;;;;;;;;4.67;4.00;;;;;-147.14;100.00;58812.66;5034964;28;46543;-55
2023/03/20 10:09:27;;;;;;;;;2.33;2.33;;;;;-147.14;100.00;58812.66;5036807;28;71294;-56
2023/03/20 10:12:32;;;;;;;;;3.33;2.33;;;;;-147.14;100.00;58812.66;5019846;28;45500;-55
2023/03/20 10:15:11;;;;;;;;;6.33;3.00;;;;;-147.14;100.00;58812.66;5009952;28;45551;-56
2023/03/20 10:18:02;;;;;;;;;2.67;2.67;;;;;-147.14;100.00;58812.66;5020117;28;46318;-55
2023/03/20 10:20:37;;;;;;;;;2.67;2.67;;;;;-147.14;100.00;58812.66;5019596;28;45369;-56
2023/03/20 10:23:11;;;;;;;;;3.00;2.33;;;;;-147.14;100.00;58812.66;5036900;28;45629;-56
2023/03/20 10:25:42;;;;;;;;;3.00;2.33;;;;;-147.14;100.00;58812.66;5021089;28;45350;-56
2023/03/20 10:28:12;;;;;;;;;5.67;3.00;;;;;-147.14;100.00;58812.66;5019156;28;46209;-56
2023/03/20 10:31:26;;;;;;;;;3.33;3.33;;;;;-147.14;100.00;58812.66;5037066;28;45767;-56
2023/03/20 10:34:16;;;;;;;;;2.33;1.67;;;;;-147.14;100.00;58812.66;4971311;28;45479;-56
2023/03/20 10:37:21;;;;;;;;;2.25;2.25;;;;;-147.14;100.00;58812.66;5036392;28;45475;-56
2023/03/20 10:40:08;;;;;;;;;2.25;2.00;;;;;-147.14;100.00;58812.66;4995249;28;45388;-55
2023/03/20 10:42:38;;;;;;;;;9.33;5.00;;;;;-147.14;100.00;58812.66;5015353;28;45902;-57
2023/03/20 10:45:29;;;;;;;;;4.33;3.00;;;;;-147.14;100.00;58812.66;5015205;28;46007;-57
2023/03/20 10:47:56;;;;;;;;;4.25;3.25;;;;;-147.14;100.00;58812.66;5034630;28;45270;-57
2023/03/20 10:50:27;;;;;;;;;3.00;3.00;;;;;-147.14;100.00;58812.66;5015481;28;46389;-55
2023/03/20 10:52:54;;;;;;;;;6.75;2.75;;;;;-147.14;100.00;58812.66;5032890;28;45661;-56
2023/03/20 10:55:21;;;;;;;;;3.00;2.00;;;;;-147.14;100.00;58812.66;5019018;28;53664;-55
2023/03/20 10:57:51;;;;;;;;;3.25;1.75;;;;;-147.14;100.00;58812.66;5018045;28;45188;-55
2023/03/20 11:00:20;;;;;;;;;4.00;3.00;;;;;-147.14;100.00;58812.66;5005988;28;47059;-55
2023/03/20 11:02:45;;;;;;;;;5.00;5.00;;;;;-147.14;100.00;58812.66;5039536;28;45595;-55
2023/03/20 11:05:32;;;;;;;;;6.00;3.75;;;;;-147.14;100.00;58812.66;5004173;28;45264;-56
2023/03/20 11:08:01;;;;;;;;;2.00;2.00;;;;;-147.14;100.00;58812.66;5012992;28;45542;-56
2023/03/20 11:10:27;;;;;;;;;2.00;2.00;;;;;-147.14;100.00;58812.66;5035258;28;46399;-56
2023/03/20 11:12:52;;;;;;;;;3.67;3.67;;;;;-147.14;100.00;58812.66;5038549;28;45559;-53
2023/03/20 11:15:32;;;;;;;;;5.50;2.50;;;;;-147.14;100.00;58812.66;5033567;28;63312;-55
2023/03/20 11:18:03;;;;;;;;;3.75;3.75;;;;;-147.14;100.00;58812.66;5030974;28;45398;-57
2023/03/20 11:20:35;;;;;;;;;6.50;4.75;;;;;-147.14;100.00;58812.66;5034678;28;45363;-55
2023/03/20 11:23:03;;;;;;;;;5.00;4.00;;;;;-147.14;100.00;58812.66;5018319;28;45600;-55
2023/03/20 11:25:32;;;;;;;;;3.33;3.33;;;;;-147.14;100.00;58812.66;5021800;28;45499;-55
2023/03/20 11:28:30;;;;;;;;;5.67;5.00;;;;;-147.14;100.00;58812.66;5031717;28;45344;-55
2023/03/20 11:31:05;;;;;;;;;3.33;2.00;;;;;-147.14;100.00;58812.66;5035673;28;46046;-55
2023/03/20 11:33:32;;;;;;;;;2.00;2.00;;;;;-147.14;100.00;58812.66;5021435;28;45409;-55
2023/03/20 11:35:58;;;;;;;;;2.00;2.00;;;;;-147.14;100.00;58812.66;5040195;28;45417;-54
2023/03/20 11:38:24;;;;;;;;;11.00;2.33;;;;;-147.14;100.00;58812.66;5002149;28;46932;-54
2023/03/20 11:40:53;;;;;;;;;4.00;3.00;;;;;-147.14;100.00;58812.66;5037390;28;45333;-54
2023/03/20 11:43:23;;;;;;;;;3.67;3.00;;;;;-147.14;100.00;58812.66;5021425;28;45722;-54
2023/03/20 11:45:59;;;;;;;;;4.00;4.00;;;;;-147.14;100.00;58812.66;5022746;28;45346;-53
2023/03/20 11:48:39;;;;;;;;;7.33;5.00;;;;;-147.14;100.00;58812.66;5008236;28;45376;-54
2023/03/20 11:51:07;;;;;;;;;7.67;5.67;;;;;-147.14;100.00;58812.66;5019116;28;46135;-54
2023/03/20 11:53:51;;;;;;;;;6.00;5.00;;;;;-147.14;100.00;58812.66;5022564;28;45440;-54
2023/03/20 11:56:24;;;;;;;;;6.33;5.00;;;;;-147.14;100.00;58812.66;5038588;28;45399;-55
2023/03/20 11:58:58;;;;;;;;;6.00;5.00;;;;;-147.14;100.00;58812.66;5037787;28;45446;-53
2023/03/20 12:01:26;;;;;;;;;2.67;2.67;;;;;-147.14;100.00;58812.66;5033748;28;46372;-54
2023/03/20 12:03:54;;;;;;;;;5.33;5.00;;;;;-147.14;100.00;58812.66;5009070;28;45489;-54
2023/03/20 12:06:36;;;;;;;;;4.67;3.00;;;;;-147.14;100.00;58812.66;5037310;28;46753;-54
2023/03/20 12:09:13;;;;;;;;;5.00;4.33;;;;;-147.14;100.00;58812.66;5003352;28;45659;-54
2023/03/20 12:11:55;;;;;;;;;6.00;5.00;;;;;-147.14;100.00;58812.66;5034321;28;46412;-54
2023/03/20 12:14:39;;;;;;;;;6.33;3.33;;;;;-147.14;100.00;58812.66;5012174;28;45416;-53
2023/03/20 12:17:32;;;;;;;;;3.67;2.33;;;;;-147.14;100.00;58812.66;5029995;28;45412;-54
2023/03/20 12:20:04;;;;;;;;;5.00;5.00;;;;;-147.14;100.00;58812.66;5011641;28;45612;-54
2023/03/20 12:22:38;;;;;;;;;5.67;3.67;;;;;-147.14;100.00;58812.66;4997949;28;45535;-54
2023/03/20 12:25:17;;;;;;;;;6.00;5.00;;;;;-147.14;100.00;58812.66;5033380;28;45297;-53
2023/03/20 12:27:47;;;;;;;;;4.33;3.00;;;;;-147.14;100.00;58812.66;5018104;28;45543;-54
2023/03/20 12:30:29;;;;;;;;;5.33;4.00;;;;;-147.14;100.00;58812.66;5017997;28;45493;-54
2023/03/20 12:33:11;;;;;;;;;5.00;5.00;;;;;-147.14;100.00;58812.66;5033962;28;45519;-53
2023/03/20 12:35:40;;;;;;;;;4.00;4.00;;;;;-147.14;100.00;58812.66;5006466;28;45556;-53
2023/03/20 12:38:42;;;;;;;;;2.33;2.33;;;;;-147.14;100.00;58812.66;5012021;28;45852;-53
2023/03/20 12:41:13;;;;;;;;;3.00;3.00;;;;;-147.14;100.00;58812.66;4975291;28;45653;-54
2023/03/20 12:43:47;;;;;;;;;5.00;2.00;;;;;-147.14;100.00;58812.66;5013227;28;45269;-53
2023/03/20 12:46:57;;;;;;;;;4.67;4.00;;;;;-147.14;100.00;58812.66;5033820;28;45623;-54
2023/03/20 12:49:34;;;;;;;;;5.00;2.00;;;;;-147.14;100.00;58812.66;4999485;28;45881;-54
2023/03/20 12:52:14;;;;;;;;;3.67;3.67;;;;;-147.14;100.00;58812.66;5034072;28;45473;-53
2023/03/20 12:55:09;;;;;;;;;2.33;2.33;;;;;-147.14;100.00;58812.66;5008569;28;46147;-53
2023/03/20 12:57:37;;;;;;;;;2.33;2.33;;;;;-147.14;100.00;58812.66;5015674;28;45511;-53
2023/03/20 13:00:24;;;;;;;;;4.33;4.33;;;;;-147.14;100.00;58812.66;5033122;28;45612;-53
2023/03/20 13:02:56;;;;;;;;;6.00;4.33;;;;;-147.14;100.00;58812.66;5036360;28;46094;-53
2023/03/20 13:05:25;;;;;;;;;4.67;3.00;;;;;-147.14;100.00;58812.66;5026808;28;45233;-52
2023/03/20 13:08:16;;;;;;;;;3.00;3.00;;;;;-147.14;100.00;58812.66;5032565;28;45389;-53
2023/03/20 13:10:54;;;;;;;;;3.67;3.00;;;;;-147.14;100.00;58812.66;5037069;28;45230;-53
2023/03/20 13:13:25;;;;;;;;;5.00;3.33;;;;;-147.14;100.00;58812.66;5035024;28;45607;-53
2023/03/20 13:16:11;;;;;;;;;3.00;3.00;;;;;-147.14;100.00;58812.66;5036985;28;45364;-52
2023/03/20 13:19:01;;;;;;;;;5.50;2.00;;;;;-147.14;100.00;58812.66;5027025;28;45421;-52
2023/03/20 13:21:38;;;;;;;;;2.00;2.00;;;;;-147.14;100.00;58812.66;5035395;28;45293;-56
2023/03/20 13:24:16;;;;;;;;;4.00;3.00;;;;;-147.14;100.00;58812.66;4993529;28;45335;-54
2023/03/20 13:27:10;;;;;;;;;3.33;3.00;;;;;-147.14;100.00;58812.66;5029925;28;45447;-55
2023/03/20 13:30:21;;;;;;;;;4.00;3.00;;;;;-147.14;100.00;58812.66;5020529;28;45441;-54
2023/03/20 13:33:37;;;;;;;;;3.00;2.00;;;;;-147.14;100.00;58812.66;5008654;28;45438;-55
2023/03/20 13:36:40;;;;;;;;;3.33;3.33;;;;;-147.14;100.00;58812.66;4996651;28;45449;-55
2023/03/20 13:39:11;;;;;;;;;5.00;3.33;;;;;-147.14;100.00;58812.66;5009820;28;46311;-55
2023/03/20 13:41:37;;;;;;;;;8.33;7.33;;;;;-147.14;100.00;58812.66;5034410;28;45350;-55
2023/03/20 13:44:04;;;;;;;;;4.00;3.33;;;;;-147.14;100.00;58812.66;5014663;28;45812;-55
2023/03/20 13:46:34;;;;;;;;;8.00;6.00;;;;;-147.14;100.00;58812.66;5012876;28;45504;-56
2023/03/20 13:49:14;;;;;;;;;5.00;5.00;;;;;-147.14;100.00;58812.66;5011818;28;45273;-56
2023/03/20 13:52:01;;;;;;;;;5.00;4.00;;;;;-147.14;100.00;58812.66;5034586;28;45482;-55
2023/03/20 13:54:52;;;;;;;;;3.67;3.67;;;;;-147.14;100.00;58812.66;5032126;28;45439;-56
2023/03/20 13:57:27;;;;;;;;;8.67;6.67;;;;;-147.14;100.00;58812.66;5034205;28;45511;-55
2023/03/20 13:59:58;;;;;;;;;4.33;4.00;;;;;-147.14;100.00;58812.66;5019158;28;46816;-55
2023/03/20 14:02:37;;;;;;;;;4.33;3.00;;;;;-147.14;100.00;58812.66;5034307;28;45428;-55
2023/03/20 14:05:12;;;;;;;;;4.00;4.00;;;;;-147.14;100.00;58812.66;5037964;28;45355;-55
2023/03/20 14:07:42;;;;;;;;;3.67;3.33;;;;;-147.14;100.00;58812.66;5014233;28;45475;-55
2023/03/20 14:10:20;;;;;;;;;4.67;4.00;;;;;-147.14;100.00;58812.66;5036792;28;46326;-55
2023/03/20 14:13:08;;;;;;;;;3.67;3.67;;;;;-147.14;100.00;58812.66;5034264;28;46624;-55
2023/03/20 14:15:35;;;;;;;;;6.67;4.67;;;;;-147.14;100.00;58812.66;5012442;28;45530;-54
2023/03/20 14:18:06;;;;;;;;;4.00;4.00;;;;;-147.14;100.00;58812.66;5030154;28;45572;-55
2023/03/20 14:20:42;;;;;;;;;4.67;4.00;;;;;-147.14;100.00;58812.66;4984010;28;48267;-55
2023/03/20 14:23:19;;;;;;;;;4.33;3.67;;;;;-147.14;100.00;58812.66;5000458;28;45268;-55
2023/03/20 14:25:46;;;;;;;;;4.00;3.00;;;;;-147.14;100.00;58812.66;5027376;28;45399;-54
2023/03/20 14:28:11;;;;;;;;;2.67;2.67;;;;;-147.14;100.00;58812.66;5040814;28;45639;-54
2023/03/20 14:30:43;;;;;;;;;3.00;3.00;;;;;-147.14;100.00;58812.66;5040407;28;46332;-55
2023/03/20 14:33:11;;;;;;;;;6.00;3.67;;;;;-147.14;100.00;58812.66;5041034;28;45452;-54
2023/03/20 14:35:42;;;;;;;;;4.67;4.67;;;;;-147.14;100.00;58812.66;5041539;28;45387;-53
2023/03/20 14:38:19;;;;;;;;;5.00;4.00;;;;;-147.14;100.00;58812.66;5034902;28;45392;-49
2023/03/20 14:40:53;;;;;;;;;5.00;3.00;;;;;-147.14;100.00;58812.66;5039915;28;46472;-52
2023/03/20 14:43:30;;;;;;;;;4.33;4.33;;;;;-147.14;100.00;58812.66;5018621;28;45305;-53
2023/03/20 14:46:07;;;;;;;;;5.00;3.00;;;;;-147.14;100.00;58812.66;5022636;28;45390;-52
2023/03/20 14:48:36;;;;;;;;;4.00;4.00;;;;;-147.14;100.00;58812.66;5023401;28;45500;-53
2023/03/20 14:51:11;;;;;;;;;6.00;4.00;;;;;-147.14;100.00;58812.66;5021004;28;45393;-53
2023/03/20 14:53:39;;;;;;;;;6.33;3.33;;;;;-147.14;100.00;58812.66;5040840;28;45321;-53
2023/03/20 14:56:07;;;;;;;;;5.00;3.00;;;;;-147.14;100.00;58812.66;5022899;28;45403;-53
2023/03/20 14:58:52;;;;;;;;;5.33;3.67;;;;;-147.14;100.00;58812.66;5039636;28;45369;-53
2023/03/20 15:01:23;;;;;;;;;5.67;4.00;;;;;-147.14;100.00;58812.66;5039521;28;45495;-53
2023/03/20 15:03:56;;;;;;;;;3.67;3.67;;;;;-147.14;100.00;58812.66;5040942;28;45466;-52
2023/03/20 15:06:24;;;;;;;;;7.00;5.33;;;;;-147.14;100.00;58812.66;5019099;28;45370;-52
2023/03/20 15:08:53;;;;;;;;;6.33;4.67;;;;;-147.14;100.00;58812.66;5013207;28;45422;-52
2023/03/20 15:11:20;;;;;;;;;5.67;5.67;;;;;-147.14;100.00;58812.66;5019280;28;45384;-52
2023/03/20 15:13:46;;;;;;;;;6.00;4.33;;;;;-147.14;100.00;58812.66;5021023;28;45231;-51
2023/03/20 15:16:14;;;;;;;;;7.00;4.33;;;;;-147.14;100.00;58812.66;5017907;28;66034;-52
2023/03/20 15:18:42;;;;;;;;;8.33;5.00;;;;;-147.14;100.00;58812.66;5020977;28;45540;-52
2023/03/20 15:21:14;;;;;;;;;6.33;5.33;;;;;-147.14;100.00;58812.66;5036136;28;45470;-53
2023/03/20 15:23:41;;;;;;;;;6.67;5.00;;;;;-147.14;100.00;58812.66;5031826;28;45427;-53
2023/03/20 15:26:07;;;;;;;;;7.33;4.33;;;;;-147.14;100.00;58812.66;5035583;28;45430;-52
2023/03/20 15:28:36;;;;;;;;;7.00;5.67;;;;;-147.14;100.00;58812.66;5004242;28;45543;-53
2023/03/20 15:31:02;;;;;;;;;4.67;4.00;;;;;-147.14;100.00;58812.66;5016991;28;45530;-53
2023/03/20 15:33:32;;;;;;;;;9.33;5.00;;;;;-147.14;100.00;58812.66;5033946;28;45312;-50
2023/03/20 15:35:58;;;;;;;;;4.00;4.00;;;;;-147.14;100.00;58812.66;5001567;28;45572;-54
2023/03/20 15:38:29;;;;;;;;;6.67;4.00;;;;;-147.14;100.00;58812.66;5010485;28;45575;-50
2023/03/20 15:40:54;;;;;;;;;7.00;4.00;;;;;-147.14;100.00;58812.66;5016476;28;46469;-54
2023/03/20 15:43:24;;;;;;;;;6.00;3.67;;;;;-147.14;100.00;58812.66;5010553;28;66840;-52
2023/03/20 15:45:53;;;;;;;;;7.00;4.00;;;;;-147.14;100.00;58812.66;5010619;28;45362;-52
2023/03/20 15:48:21;;;;;;;;;4.67;4.67;;;;;-147.14;100.00;58812.66;5022019;28;45464;-52
2023/03/20 15:50:53;;;;;;;;;7.00;4.33;;;;;-147.14;100.00;58812.66;5027741;28;45515;-52
2023/03/20 15:53:23;;;;;;;;;5.33;4.00;;;;;-147.14;100.00;58812.66;5018898;28;45520;-52
2023/03/20 15:55:56;;;;;;;;;5.00;5.00;;;;;-147.14;100.00;58812.66;5014460;28;45376;-53
2023/03/20 15:58:23;;;;;;;;;3.33;3.00;;;;;-147.14;100.00;58812.66;5031297;28;45506;-52
2023/03/20 16:00:49;;;;;;;;;4.67;4.67;;;;;-147.14;100.00;58812.66;5020549;28;45369;-54
2023/03/20 16:03:18;;;;;;;;;7.67;6.00;;;;;-147.14;100.00;58812.66;5004379;28;45413;-53
2023/03/20 16:05:45;;;;;;;;;1.67;1.00;;;;;-147.14;100.00;58812.66;5013942;28;45633;-52
2023/03/20 16:08:21;;;;;;;;;6.00;6.00;;;;;-147.14;100.00;58812.66;4990581;28;45897;-53
2023/03/20 16:10:46;;;;;;;;;6.00;4.00;;;;;-147.14;100.00;58812.66;5017821;28;45897;-53
2023/03/20 16:13:12;;;;;;;;;7.67;4.00;;;;;-147.14;100.00;58812.66;5017138;28;70162;-50
2023/03/20 16:15:38;;;;;;;;;4.00;4.00;;;;;-147.14;100.00;58812.66;5019778;28;45615;-52
2023/03/20 16:18:05;;;;;;;;;6.67;4.67;;;;;-147.14;100.00;58812.66;4987016;28;46653;-53
2023/03/20 16:20:37;;;;;;;;;5.00;3.00;;;;;-147.14;100.00;58812.66;5013746;28;45504;-51
2023/03/20 16:23:06;;;;;;;;;6.33;4.00;;;;;-147.14;100.00;58812.66;5000467;28;45552;-53
2023/03/20 16:25:33;;;;;;;;;7.00;4.00;;;;;-147.14;100.00;58812.66;4984889;28;45271;-53
2023/03/20 16:27:59;;;;;;;;;5.33;4.67;;;;;-147.14;100.00;58812.66;5009945;28;45558;-52
2023/03/20 16:30:28;;;;;;;;;6.00;6.00;;;;;-147.14;100.00;58812.66;5012907;28;46189;-49
2023/03/20 16:32:58;;;;;;;;;5.67;4.67;;;;;-147.14;100.00;58812.66;4984813;28;45395;-52
2023/03/20 16:35:29;;;;;;;;;7.67;5.00;;;;;-147.14;100.00;58812.66;5026519;28;45324;-51
2023/03/20 16:37:56;;;;;;;;;4.00;4.00;;;;;-147.14;100.00;58812.66;5018493;28;45438;-50
2023/03/20 16:40:32;;;;;;;;;7.33;7.33;;;;;-147.14;100.00;58812.66;5007251;28;45340;-50
2023/03/20 16:43:15;;;;;;;;;10.67;5.67;;;;;-147.14;100.00;58812.66;4993724;28;45414;-52
2023/03/20 16:45:44;;;;;;;;;5.33;4.00;;;;;-147.14;100.00;58812.66;5018005;28;45295;-51
2023/03/20 16:48:09;;;;;;;;;5.00;5.00;;;;;-147.14;100.00;58812.66;5021334;28;45622;-53
2023/03/20 16:50:37;;;;;;;;;7.00;4.00;;;;;-147.14;100.00;58812.66;5016947;28;45932;-52
2023/03/20 16:53:09;;;;;;;;;4.33;4.00;;;;;-147.14;100.00;58812.66;5001517;28;45367;-53
2023/03/20 16:55:36;;;;;;;;;7.00;7.00;;;;;-147.14;100.00;58812.66;5020962;28;45588;-53
2023/03/20 16:58:06;;;;;;;;;5.00;4.00;;;;;-147.14;100.00;58812.66;4997127;28;45543;-54
2023/03/20 17:00:41;;;;;;;;;7.67;6.00;;;;;-147.14;100.00;58812.66;4983335;28;48033;-50
2023/03/20 17:03:48;;;;;;;;;5.00;5.00;;;;;-147.14;100.00;58812.66;5015204;28;45428;-51
2023/03/20 17:06:22;;;;;;;;;8.67;5.67;;;;;-147.14;100.00;58812.66;5015379;28;45543;-53
2023/03/20 17:08:54;;;;;;;;;11.33;8.67;;;;;-147.14;100.00;58812.66;5018581;28;45583;-51
2023/03/20 17:11:28;;;;;;;;;7.67;7.33;;;;;-147.14;100.00;58812.66;5034654;28;46456;-52
2023/03/20 17:13:54;;;;;;;;;7.67;5.33;;;;;-147.14;100.00;58812.66;5007932;28;45670;-52
2023/03/20 17:16:20;;;;;;;;;8.00;6.67;;;;;-147.14;100.00;58812.66;5030078;28;47356;-52
2023/03/20 17:19:09;;;;;;;;;10.33;7.00;;;;;-147.14;100.00;58812.66;5030489;28;45551;-51
2023/03/20 17:21:35;;;;;;;;;7.67;6.67;;;;;-147.14;100.00;58812.66;5025759;28;47231;-53
2023/03/20 17:24:00;;;;;;;;;7.00;5.00;;;;;-147.14;100.00;58812.66;4985088;28;46147;-52
2023/03/20 17:26:25;;;;;;;;;11.33;5.67;;;;;-147.14;100.00;58812.66;5005588;28;62150;-51
2023/03/20 17:28:51;;;;;;;;;7.33;7.33;;;;;-147.14;100.00;58812.66;5033652;28;45550;-54
2023/03/20 17:31:17;;;;;;;;;4.33;4.33;;;;;-147.14;100.00;58812.66;5008695;28;46479;-52